Time;durP1;ratioP1;P1;durP2;ratioP2;P2;SDS_P1;SDS_P2;PMS_P1;PMS_P2;Temp;Humidity;BMP_temperature;BMP_pressure;BME280_temperature;BME280_humidity;BME280_pressure;Samples;Min_cycle;Max_cycle;Signal;HPM_P1;HPM_P2
2022/06/09 00:00:18;;;;;;;4.87;4.30;;;;;;;17.62;100.00;98470.19;4686294;30;20256;-86
2022/06/09 00:02:52;;;;;;;5.03;4.40;;;;;;;17.56;100.00;98464.00;4686473;30;20271;-86
2022/06/09 00:05:26;;;;;;;4.90;4.60;;;;;;;17.54;100.00;98477.03;4673234;30;20241;-86
2022/06/09 00:08:10;;;;;;;5.10;4.70;;;;;;;17.50;100.00;98468.66;4698489;30;20251;-86
2022/06/09 00:10:59;;;;;;;4.73;4.27;;;;;;;17.49;100.00;98469.78;4683643;30;20260;-86
2022/06/09 00:13:31;;;;;;;6.30;4.50;;;;;;;17.51;100.00;98470.28;4698561;30;20298;-85
2022/06/09 00:16:03;;;;;;;5.50;4.60;;;;;;;17.44;100.00;98469.84;4686889;30;20336;-87
2022/06/09 00:18:36;;;;;;;6.03;4.63;;;;;;;17.45;100.00;98478.78;4721007;30;20240;-86
2022/06/09 00:21:03;;;;;;;5.00;4.50;;;;;;;17.44;100.00;98472.56;4700799;30;20323;-86
2022/06/09 00:24:46;;;;;;;5.60;4.67;;;;;;;17.40;100.00;98470.72;4692082;30;20255;-86
2022/06/09 00:27:53;;;;;;;5.23;4.83;;;;;;;17.37;100.00;98474.00;4698656;30;20282;-86
2022/06/09 00:30:20;;;;;;;5.63;5.10;;;;;;;17.37;100.00;98474.81;4678766;30;20273;-86
2022/06/09 00:33:04;;;;;;;5.07;4.63;;;;;;;17.41;100.00;98472.31;4682708;30;20259;-86
2022/06/09 00:35:37;;;;;;;4.60;4.30;;;;;;;17.48;100.00;98464.66;4700340;30;20238;-86
2022/06/09 00:38:09;;;;;;;5.27;4.60;;;;;;;17.40;100.00;98476.16;4697109;30;20250;-86
2022/06/09 00:40:39;;;;;;;4.80;4.40;;;;;;;17.35;100.00;98463.50;4696763;30;20283;-86
2022/06/09 00:43:09;;;;;;;5.13;4.60;;;;;;;17.32;100.00;98466.75;4683572;30;20245;-86
2022/06/09 00:45:42;;;;;;;4.87;4.47;;;;;;;17.33;100.00;98470.28;4694034;30;20305;-86
2022/06/09 00:48:14;;;;;;;4.77;4.37;;;;;;;17.33;100.00;98475.69;4703095;30;20256;-86
2022/06/09 00:50:43;;;;;;;4.80;4.40;;;;;;;17.32;100.00;98471.38;4699897;30;20235;-87
2022/06/09 00:53:16;;;;;;;4.77;4.47;;;;;;;17.31;100.00;98473.25;4717207;30;20269;-86
2022/06/09 00:55:46;;;;;;;5.20;4.63;;;;;;;17.30;100.00;98468.97;4688667;30;20246;-87
2022/06/09 00:58:18;;;;;;;4.90;4.50;;;;;;;17.29;100.00;98467.34;4702880;30;20262;-86
2022/06/09 01:00:57;;;;;;;4.87;4.40;;;;;;;17.29;100.00;98470.06;4702837;30;20330;-87
2022/06/09 01:04:13;;;;;;;5.73;4.50;;;;;;;17.26;100.00;98473.34;4655454;30;20256;-86
2022/06/09 01:07:06;;;;;;;5.20;4.70;;;;;;;17.24;100.00;98478.25;4636147;30;20250;-86
2022/06/09 01:09:45;;;;;;;4.83;4.53;;;;;;;17.23;100.00;98467.69;4655067;30;20822;-86
2022/06/09 01:12:27;;;;;;;4.93;4.53;;;;;;;17.18;100.00;98469.38;4666312;30;20237;-86
2022/06/09 01:15:42;;;;;;;;;;;;;;;;;;;;;
2022/06/09 01:19:01;;;;;;;5.23;4.73;;;;;;;17.11;100.00;98470.84;4658035;30;20245;-85
2022/06/09 01:22:14;;;;;;;4.80;4.40;;;;;;;17.08;100.00;98468.69;4639676;30;20246;-86
2022/06/09 01:25:04;;;;;;;4.97;4.53;;;;;;;17.02;100.00;98465.25;4666160;30;20270;-88
2022/06/09 01:28:12;;;;;;;5.10;4.53;;;;;;;17.00;100.00;98467.44;4648690;30;20271;-86
2022/06/09 01:30:53;;;;;;;5.30;4.80;;;;;;;17.02;100.00;98469.88;4667120;30;20271;-87
2022/06/09 01:34:08;;;;;;;4.90;4.50;;;;;;;17.00;100.00;98478.25;4674841;30;20266;-87
2022/06/09 01:36:46;;;;;;;5.07;4.57;;;;;;;16.99;100.00;98467.72;4679471;30;20245;-86
2022/06/09 01:39:15;;;;;;;5.63;4.70;;;;;;;16.98;100.00;98476.97;4667418;30;20276;-87
2022/06/09 01:41:49;;;;;;;5.20;4.90;;;;;;;16.93;100.00;98467.00;4693976;30;20247;-86
2022/06/09 01:44:20;;;;;;;5.40;5.00;;;;;;;16.95;100.00;98463.97;4695450;30;20335;-86
2022/06/09 01:51:00;;;;;;;6.57;5.20;;;;;;;16.92;100.00;98483.50;4700765;30;20325;-86
2022/06/09 01:53:38;;;;;;;5.37;4.87;;;;;;;16.91;100.00;98484.59;4687382;30;20237;-87
2022/06/09 01:56:29;;;;;;;5.80;5.17;;;;;;;16.90;100.00;98491.91;4686307;30;20242;-87
2022/06/09 01:59:11;;;;;;;5.50;5.00;;;;;;;16.90;100.00;98483.78;4716631;30;20234;-88
2022/06/09 02:01:47;;;;;;;5.30;4.83;;;;;;;16.90;100.00;98489.19;4689832;30;20280;-88
2022/06/09 02:04:25;;;;;;;5.50;5.10;;;;;;;17.00;100.00;98494.50;4702499;30;20242;-88
2022/06/09 02:07:14;;;;;;;5.87;5.30;;;;;;;17.00;100.00;98483.69;4702791;30;20256;-88
2022/06/09 02:09:42;;;;;;;6.23;5.73;;;;;;;16.89;100.00;98482.16;4705742;30;20249;-88
2022/06/09 02:12:13;;;;;;;6.20;5.60;;;;;;;16.86;100.00;98482.75;4717606;30;20267;-88
2022/06/09 02:14:46;;;;;;;5.90;5.40;;;;;;;16.85;100.00;98491.16;4703441;30;20245;-89
2022/06/09 02:17:15;;;;;;;6.00;5.40;;;;;;;16.78;100.00;98493.41;4703017;30;20752;-89
2022/06/09 02:19:50;;;;;;;4.90;4.57;;;;;;;16.79;100.00;98498.53;4705739;30;20239;-88
2022/06/09 02:22:21;;;;;;;4.50;4.10;;;;;;;16.72;100.00;98495.34;4716163;30;20254;-89
2022/06/09 02:25:09;;;;;;;3.60;3.30;;;;;;;16.62;100.00;98493.56;4715134;30;20249;-88
2022/06/09 02:27:47;;;;;;;2.67;2.20;;;;;;;16.59;100.00;98504.16;4703053;30;20245;-89
2022/06/09 02:30:15;;;;;;;2.90;2.20;;;;;;;16.52;100.00;98496.31;4702446;30;20252;-89
2022/06/09 02:33:07;;;;;;;2.30;1.60;;;;;;;16.52;100.00;98496.31;4699651;30;20234;-89
2022/06/09 02:35:55;;;;;;;5.37;2.13;;;;;;;16.38;100.00;98514.31;4703879;30;20316;-90
2022/06/09 02:38:24;;;;;;;3.40;1.70;;;;;;;16.30;100.00;98517.63;4695918;30;20241;-90
2022/06/09 02:44:19;;;;;;;3.00;1.80;;;;;;;15.81;100.00;98518.53;4699338;30;20328;-91
2022/06/09 02:46:51;;;;;;;6.87;2.10;;;;;;;15.75;100.00;98535.84;4702711;30;20289;-91
2022/06/09 02:49:21;;;;;;;1.93;1.80;;;;;;;15.71;100.00;98528.59;4702582;30;20249;-91
2022/06/09 02:51:59;;;;;;;3.17;1.63;;;;;;;15.64;100.00;98522.69;4688375;30;20245;-90
2022/06/09 02:54:36;;;;;;;1.80;1.70;;;;;;;15.60;100.00;98527.03;4687857;30;20244;-90
2022/06/09 02:57:10;;;;;;;3.77;1.77;;;;;;;15.57;100.00;98523.00;4703204;30;20328;-89
2022/06/09 02:59:38;;;;;;;2.13;1.37;;;;;;;15.48;100.00;98513.03;4702283;30;20333;-89
2022/06/09 03:02:29;;;;;;;2.70;1.40;;;;;;;15.50;100.00;98519.75;4704838;30;20238;-90
2022/06/09 03:04:58;;;;;;;1.90;1.40;;;;;;;15.52;100.00;98511.44;4705068;30;20273;-90
2022/06/09 03:07:29;;;;;;;1.33;1.00;;;;;;;15.51;100.00;98513.31;4693363;30;20328;-90
2022/06/09 03:10:07;;;;;;;1.43;1.20;;;;;;;15.51;100.00;98504.41;4705958;30;20752;-91
2022/06/09 03:12:36;;;;;;;1.70;1.13;;;;;;;15.47;100.00;98506.03;4691590;30;20233;-90
2022/06/09 03:15:08;;;;;;;2.73;1.17;;;;;;;15.42;100.00;98509.56;4706177;30;20248;-90
2022/06/09 03:17:41;;;;;;;1.60;0.83;;;;;;;15.38;100.00;98506.59;4705836;30;20241;-90
2022/06/09 03:20:29;;;;;;;1.67;1.00;;;;;;;15.49;100.00;98496.53;4706772;30;20241;-90
2022/06/09 03:22:57;;;;;;;3.30;1.00;;;;;;;15.35;100.00;98507.16;4705342;30;20338;-90
2022/06/09 03:25:27;;;;;;;1.00;0.90;;;;;;;15.37;100.00;98491.50;4719603;30;20242;-89
2022/06/09 03:27:57;;;;;;;1.00;0.90;;;;;;;15.56;100.00;98504.38;4705367;30;20242;-90
2022/06/09 03:30:32;;;;;;;0.63;0.60;;;;;;;15.44;100.00;98496.59;4705917;30;20350;-90
2022/06/09 03:33:03;;;;;;;0.90;0.80;;;;;;;15.36;100.00;98506.06;4705698;30;20234;-89
2022/06/09 03:35:31;;;;;;;1.00;0.90;;;;;;;15.33;100.00;98508.53;4692653;30;20277;-90
2022/06/09 03:38:16;;;;;;;1.27;0.80;;;;;;;15.32;100.00;98499.63;4692637;30;20238;-90
2022/06/09 03:40:48;;;;;;;0.83;0.70;;;;;;;15.33;100.00;98498.53;4702385;30;20246;-90
2022/06/09 03:43:19;;;;;;;0.80;0.67;;;;;;;15.39;100.00;98508.22;4703665;30;20253;-90
2022/06/09 03:45:52;;;;;;;1.47;0.77;;;;;;;15.36;100.00;98503.38;4706390;30;20258;-89
2022/06/09 03:48:29;;;;;;;3.03;0.80;;;;;;;15.37;100.00;98501.47;4699761;30;20237;-89
2022/06/09 03:50:56;;;;;;;1.13;0.60;;;;;;;15.49;100.00;98507.34;4701676;30;20241;-89
2022/06/09 03:53:26;;;;;;;0.87;0.70;;;;;;;15.59;100.00;98506.50;4704725;30;20266;-90
2022/06/09 03:55:53;;;;;;;2.90;0.80;;;;;;;15.57;100.00;98500.59;4704851;30;20253;-89
2022/06/09 03:58:27;;;;;;;0.67;0.60;;;;;;;15.75;100.00;98498.06;4703850;30;20265;-90
2022/06/09 04:00:57;;;;;;;0.90;0.60;;;;;;;15.72;100.00;98501.28;4704674;30;20238;-89
2022/06/09 04:03:49;;;;;;;2.27;0.60;;;;;;;15.84;100.00;98509.88;4705222;30;20728;-90
2022/06/09 04:06:24;;;;;;;1.23;0.60;;;;;;;15.89;100.00;98509.03;4715941;30;20264;-90
2022/06/09 04:09:07;;;;;;;0.63;0.60;;;;;;;15.98;100.00;98506.53;4705025;30;20237;-90
2022/06/09 04:11:44;;;;;;;2.50;0.70;;;;;;;16.04;100.00;98508.94;4704316;30;20249;-89
2022/06/09 04:14:16;;;;;;;1.03;0.90;;;;;;;16.12;100.00;98505.63;4706891;30;20272;-89
2022/06/09 04:16:47;;;;;;;1.07;0.60;;;;;;;16.13;100.00;98503.72;4690503;30;20713;-90
2022/06/09 04:19:27;;;;;;;1.63;0.70;;;;;;;16.04;100.00;98508.94;4692174;30;20241;-89
2022/06/09 04:22:07;;;;;;;1.27;0.60;;;;;;;16.15;100.00;98506.94;4705628;30;20320;-89
2022/06/09 04:24:41;;;;;;;0.67;0.67;;;;;;;16.10;100.00;98517.78;4700959;30;20246;-89
2022/06/09 04:27:16;;;;;;;1.27;0.67;;;;;;;15.99;100.00;98517.06;4703744;30;20292;-90
2022/06/09 04:29:53;;;;;;;1.00;0.53;;;;;;;15.99;100.00;98518.97;4705009;30;20248;-89
2022/06/09 04:32:29;;;;;;;0.60;0.60;;;;;;;15.98;100.00;98509.22;4703690;30;20272;-89
2022/06/09 04:35:02;;;;;;;1.83;0.80;;;;;;;15.96;100.00;98517.59;4718615;30;20614;-88
2022/06/09 04:40:29;;;;;;;1.30;0.60;;;;;;;16.01;100.00;98516.75;4718770;30;20760;-89
2022/06/09 04:42:57;;;;;;;0.93;0.70;;;;;;;15.87;100.00;98524.69;4686293;30;20617;-89
2022/06/09 04:45:30;;;;;;;0.93;0.70;;;;;;;15.93;100.00;98526.28;4705399;30;20302;-89
2022/06/09 04:48:03;;;;;;;1.63;0.60;;;;;;;15.95;100.00;98524.13;4706707;30;20717;-89
2022/06/09 04:50:33;;;;;;;1.17;0.80;;;;;;;16.04;100.00;98527.03;4693814;30;20232;-89
2022/06/09 04:53:05;;;;;;;1.70;0.60;;;;;;;15.98;100.00;98530.84;4692511;30;20233;-89
2022/06/09 04:55:43;;;;;;;0.80;0.70;;;;;;;15.93;100.00;98539.78;4722126;30;20252;-89
2022/06/09 04:58:19;;;;;;;1.87;0.70;;;;;;;15.87;100.00;98546.31;4720166;30;20263;-89
2022/06/09 05:00:53;;;;;;;1.70;0.80;;;;;;;15.98;100.00;98544.34;4706824;30;20268;-88
2022/06/09 05:03:20;;;;;;;0.73;0.60;;;;;;;16.01;100.00;98549.19;4711831;30;20268;-88
2022/06/09 05:06:26;;;;;;;0.90;0.70;;;;;;;16.00;100.00;98553.00;4688492;30;20245;-88
2022/06/09 05:08:55;;;;;;;2.40;0.67;;;;;;;16.05;100.00;98550.25;4707013;30;20249;-88
2022/06/09 05:11:28;;;;;;;2.03;0.80;;;;;;;16.03;100.00;98560.53;4711480;30;20245;-88
2022/06/09 05:13:57;;;;;;;0.63;0.60;;;;;;;16.09;100.00;98570.22;4722389;30;20237;-87
2022/06/09 05:16:24;;;;;;;0.93;0.50;;;;;;;16.22;100.00;98556.06;4705658;30;20240;-89
2022/06/09 05:18:51;;;;;;;0.90;0.70;;;;;;;16.28;100.00;98555.72;4706634;30;20237;-88
2022/06/09 05:21:41;;;;;;;2.20;0.70;;;;;;;16.36;100.00;98551.63;4697921;30;20307;-89
2022/06/09 05:24:14;;;;;;;1.73;0.60;;;;;;;16.67;100.00;98557.59;4703868;30;20237;-89
2022/06/09 05:26:45;;;;;;;0.70;0.60;;;;;;;16.94;100.00;98555.16;4711279;30;20272;-89
2022/06/09 05:29:16;;;;;;;0.80;0.70;;;;;;;17.12;100.00;98557.13;4702868;30;20245;-90
2022/06/09 05:31:48;;;;;;;1.27;0.80;;;;;;;17.23;100.00;98563.25;4703230;30;20241;-89
2022/06/09 05:34:17;;;;;;;1.57;0.70;;;;;;;17.23;100.00;98559.72;4702552;30;20308;-89
2022/06/09 05:36:52;;;;;;;0.73;0.73;;;;;;;17.27;100.00;98571.59;4699041;30;20233;-88
2022/06/09 05:45:09;;;;;;;1.20;0.70;;;;;;;17.34;100.00;98570.16;4705300;30;20237;-89
2022/06/09 05:47:41;;;;;;;2.53;0.80;;;;;;;17.38;100.00;98579.31;4692531;30;20315;-90
2022/06/09 05:50:14;;;;;;;1.57;0.70;;;;;;;17.44;100.00;98583.56;4695025;30;20721;-89
2022/06/09 05:52:41;;;;;;;1.80;0.90;;;;;;;17.58;100.00;98583.69;4699495;30;20262;-89
2022/06/09 05:55:19;;;;;;;1.73;0.93;;;;;;;17.57;100.00;98591.00;4699696;30;20238;-87
2022/06/09 05:57:46;;;;;;;2.20;0.80;;;;;;;17.78;100.00;98585.31;4693946;30;20618;-89
2022/06/09 06:00:20;;;;;;;1.53;0.70;;;;;;;17.84;100.00;98587.69;4673210;30;20725;-87
2022/06/09 06:03:02;;;;;;;1.63;0.90;;;;;;;18.01;100.00;98592.59;4684042;30;20241;-89
2022/06/09 06:08:19;;;;;;;1.17;0.97;;;;;;;17.90;100.00;98600.06;4677722;30;20344;-89
2022/06/09 06:10:47;;;;;;;1.80;0.83;;;;;;;18.06;100.00;98592.53;4668285;30;20238;-88
2022/06/09 06:13:24;;;;;;;3.10;0.80;;;;;;;18.20;100.00;98600.72;4689455;30;20249;-91
2022/06/09 06:15:55;;;;;;;2.27;0.70;;;;;;;18.31;100.00;98591.34;4697252;30;20329;-88
2022/06/09 06:18:30;;;;;;;1.00;0.80;;;;;;;18.51;100.00;98595.66;4696909;30;20274;-87
2022/06/09 06:20:59;;;;;;;2.10;0.90;;;;;;;18.60;100.00;98600.13;4678091;30;20249;-85
2022/06/09 06:23:29;;;;;;;1.20;0.80;;;;;;;18.76;100.00;98596.03;4709736;30;20302;-86
2022/06/09 06:26:01;;;;;;;1.57;0.70;;;;;;;18.71;100.00;98608.91;4720093;30;20237;-87
2022/06/09 06:28:31;;;;;;;1.67;0.90;;;;;;;18.65;100.00;98612.81;4695430;30;20290;-88
2022/06/09 06:31:06;;;;;;;2.07;0.80;;;;;;;18.68;100.00;98612.22;4680934;30;20291;-88
2022/06/09 06:33:34;;;;;;;1.27;0.63;;;;;;;18.79;100.00;98613.66;4674651;30;20234;-87
2022/06/09 06:36:33;;;;;;;0.87;0.70;;;;;;;18.63;100.00;98610.38;4687914;30;20694;-87
2022/06/09 06:39:10;;;;;;;0.60;0.60;;;;;;;18.62;100.00;98606.06;4695277;30;20245;-88
2022/06/09 06:41:47;;;;;;;2.10;0.70;;;;;;;18.59;100.00;98614.78;4708944;30;20241;-88
2022/06/09 06:44:34;;;;;;;2.53;0.90;;;;;;;18.51;100.00;98609.22;4693178;30;20311;-87
2022/06/09 06:47:35;;;;;;;1.27;0.77;;;;;;;18.55;100.00;98610.25;4704324;30;20244;-87
2022/06/09 06:50:12;;;;;;;1.97;0.90;;;;;;;18.43;100.00;98616.91;4705442;30;20299;-87
2022/06/09 06:52:44;;;;;;;1.70;0.83;;;;;;;18.36;100.00;98624.63;4703919;30;20233;-87
2022/06/09 06:55:14;;;;;;;0.97;0.77;;;;;;;18.35;100.00;98623.00;4702201;30;20242;-87
2022/06/09 06:57:53;;;;;;;;;;;;;;;;;;;;;
2022/06/09 07:00:22;;;;;;;2.40;0.70;;;;;;;18.13;100.00;98616.56;4706169;30;20341;-87
2022/06/09 07:02:52;;;;;;;1.30;0.80;;;;;;;18.07;100.00;98625.84;4716204;30;20238;-87
2022/06/09 07:05:39;;;;;;;1.33;0.80;;;;;;;17.97;100.00;98627.59;4717123;30;20241;-87
2022/06/09 07:08:08;;;;;;;0.80;0.60;;;;;;;17.95;100.00;98624.41;4720053;30;20240;-87
2022/06/09 07:10:36;;;;;;;1.13;0.60;;;;;;;17.71;100.00;98620.09;4719599;30;20321;-87
2022/06/09 07:13:06;;;;;;;1.27;0.80;;;;;;;17.65;100.00;98618.53;4702288;30;20242;-88
2022/06/09 07:15:37;;;;;;;1.23;0.70;;;;;;;17.97;100.00;98624.09;4677291;30;20291;-87
2022/06/09 07:18:09;;;;;;;0.87;0.70;;;;;;;18.07;100.00;98623.16;4704699;30;20245;-87
2022/06/09 07:20:44;;;;;;;0.87;0.80;;;;;;;18.27;100.00;98629.09;4693891;30;20241;-87
2022/06/09 07:23:26;;;;;;;1.70;0.80;;;;;;;18.48;100.00;98626.88;4705605;30;20245;-88
2022/06/09 07:25:56;;;;;;;1.43;0.70;;;;;;;18.65;100.00;98638.03;4702550;30;20726;-87
2022/06/09 07:28:27;;;;;;;1.60;0.80;;;;;;;18.77;100.00;98622.09;4693675;30;20262;-86
2022/06/09 07:30:56;;;;;;;1.00;0.70;;;;;;;18.88;100.00;98622.72;4705129;30;20295;-87
2022/06/09 07:33:30;;;;;;;1.20;0.70;;;;;;;18.79;100.00;98629.94;4718195;30;20280;-87
2022/06/09 07:36:20;;;;;;;0.83;0.70;;;;;;;18.84;100.00;98638.81;4715258;30;20291;-87
2022/06/09 07:38:50;;;;;;;0.60;0.50;;;;;;;18.75;100.00;98637.06;4704844;30;20329;-87
2022/06/09 07:41:20;;;;;;;1.70;0.60;;;;;;;18.76;100.00;98639.47;4704873;30;20273;-88
2022/06/09 07:44:01;;;;;;;1.33;0.60;;;;;;;18.73;100.00;98650.09;4705852;30;20247;-87
2022/06/09 07:46:39;;;;;;;1.80;0.70;;;;;;;18.71;100.00;98642.25;4707837;30;20244;-87
2022/06/09 07:49:07;;;;;;;1.23;0.80;;;;;;;18.57;100.00;98646.03;4692493;30;20312;-87
2022/06/09 07:51:35;;;;;;;1.03;0.67;;;;;;;18.32;100.00;98644.47;4723938;30;20245;-87
2022/06/09 07:54:07;;;;;;;2.17;1.30;;;;;;;18.18;100.00;98654.44;4710283;30;20241;-87
2022/06/09 07:56:37;;;;;;;0.60;0.50;;;;;;;18.00;100.00;98658.75;4711019;30;20273;-86
2022/06/09 07:59:07;;;;;;;1.07;0.67;;;;;;;17.91;100.00;98668.63;4720423;30;20236;-87
2022/06/09 08:01:46;;;;;;;1.03;0.60;;;;;;;17.85;100.00;98662.47;4710451;30;20245;-87
2022/06/09 08:04:18;;;;;;;1.10;0.70;;;;;;;17.88;100.00;98667.28;4711036;30;20335;-86
2022/06/09 08:06:45;;;;;;;1.63;0.80;;;;;;;18.00;100.00;98670.41;4707207;30;20257;-87
2022/06/09 08:09:20;;;;;;;1.37;0.70;;;;;;;18.10;100.00;98664.03;4693360;30;20233;-87
2022/06/09 08:11:56;;;;;;;1.20;0.80;;;;;;;18.06;100.00;98675.75;4704808;30;20254;-88
2022/06/09 08:14:30;;;;;;;2.57;0.70;;;;;;;18.01;100.00;98665.75;4699176;30;20233;-87
2022/06/09 08:16:58;;;;;;;1.23;0.80;;;;;;;18.00;100.00;98667.69;4707524;30;20284;-87
2022/06/09 08:19:28;;;;;;;1.47;0.80;;;;;;;17.96;100.00;98671.28;4695562;30;20713;-87
2022/06/09 08:21:59;;;;;;;1.03;0.90;;;;;;;17.92;100.00;98671.03;4701886;30;20328;-87
2022/06/09 08:24:34;;;;;;;0.70;0.67;;;;;;;17.96;100.00;98672.06;4711744;30;20592;-87
2022/06/09 08:27:09;;;;;;;1.23;0.80;;;;;;;17.97;100.00;98667.44;4710641;30;20233;-88
2022/06/09 08:29:44;;;;;;;1.67;1.03;;;;;;;18.01;100.00;98668.47;4707558;30;20263;-87
2022/06/09 08:32:16;;;;;;;1.63;0.80;;;;;;;18.07;100.00;98674.63;4704513;30;20253;-87
2022/06/09 08:35:05;;;;;;;0.80;0.73;;;;;;;18.16;100.00;98681.03;4720643;30;20240;-87
2022/06/09 08:37:51;;;;;;;1.17;0.90;;;;;;;18.23;100.00;98681.47;4703621;30;20256;-88
2022/06/09 08:40:25;;;;;;;1.53;0.87;;;;;;;18.31;100.00;98670.78;4717073;30;20680;-87
2022/06/09 08:43:25;;;;;;;2.40;0.80;;;;;;;18.16;100.00;98679.13;4706715;30;20250;-88
2022/06/09 08:45:57;;;;;;;1.33;0.90;;;;;;;18.42;100.00;98674.97;4718168;30;20255;-88
2022/06/09 08:48:26;;;;;;;1.37;0.80;;;;;;;18.55;100.00;98672.66;4708983;30;20246;-87
2022/06/09 08:51:10;;;;;;;0.83;0.80;;;;;;;18.66;100.00;98688.47;4721245;30;20330;-88
2022/06/09 08:53:49;;;;;;;1.63;0.70;;;;;;;18.85;100.00;98680.28;4721722;30;20257;-89
2022/06/09 08:56:33;;;;;;;1.93;0.80;;;;;;;18.80;100.00;98693.97;4702745;30;20241;-89
2022/06/09 08:59:16;;;;;;;0.80;0.70;;;;;;;18.92;100.00;98697.00;4702264;30;20241;-88
2022/06/09 09:02:09;;;;;;;1.50;0.70;;;;;;;18.99;100.00;98697.44;4707882;30;20464;-88
2022/06/09 09:04:47;;;;;;;1.07;0.83;;;;;;;18.94;100.00;98697.53;4694433;30;20714;-89
2022/06/09 09:07:30;;;;;;;2.37;0.87;;;;;;;18.85;100.00;98708.25;4710246;30;20721;-89
2022/06/09 09:10:21;;;;;;;0.90;0.80;;;;;;;18.70;100.00;98704.97;4710388;30;20734;-90
2022/06/09 09:13:31;;;;;;;0.70;0.67;;;;;;;18.50;100.00;98703.31;4708212;30;20320;-88
2022/06/09 09:16:09;;;;;;;1.40;0.80;;;;;;;18.54;100.00;98709.00;4706561;30;20250;-87
2022/06/09 09:18:53;;;;;;;3.57;0.83;;;;;;;18.74;100.00;98709.50;4721139;30;20238;-88
2022/06/09 09:21:46;;;;;;;0.80;0.80;;;;;;;18.80;100.00;98715.69;4706536;30;20234;-87
2022/06/09 09:24:48;;;;;;;1.30;0.90;;;;;;;18.99;100.00;98711.00;4712904;30;20251;-87
2022/06/09 09:27:43;;;;;;;0.83;0.70;;;;;;;19.03;100.00;98714.75;4714456;30;20336;-87
2022/06/09 09:30:48;;;;;;;0.83;0.70;;;;;;;19.09;100.00;98715.47;4722613;30;20238;-88
2022/06/09 09:33:22;;;;;;;2.10;0.90;;;;;;;19.14;100.00;98712.66;4716847;30;20700;-87
2022/06/09 09:36:18;;;;;;;1.23;0.70;;;;;;;19.21;100.00;98711.19;4707668;30;20245;-87
2022/06/09 09:38:53;;;;;;;1.10;0.80;;;;;;;19.44;100.00;98706.75;4706248;30;20249;-89
2022/06/09 09:41:36;;;;;;;0.80;0.80;;;;;;;19.51;100.00;98701.72;4715375;30;20246;-88
2022/06/09 09:44:18;;;;;;;0.80;0.80;;;;;;;19.76;100.00;98701.22;4716926;30;20254;-88
2022/06/09 09:46:58;;;;;;;0.80;0.80;;;;;;;19.73;100.00;98698.31;4705094;30;20246;-88
2022/06/09 09:49:50;;;;;;;0.70;0.70;;;;;;;20.08;100.00;98702.22;4711143;30;20247;-88
2022/06/09 09:52:46;;;;;;;0.90;0.90;;;;;;;20.36;100.00;98706.53;4722067;30;20326;-88
2022/06/09 09:55:29;;;;;;;1.97;0.90;;;;;;;20.38;100.00;98712.50;4705887;30;20752;-88
2022/06/09 09:58:36;;;;;;;1.10;0.93;;;;;;;20.94;100.00;98709.28;4713191;30;20244;-88
2022/06/09 10:15:02;;;;;;;1.33;0.90;;;;;;;20.78;100.00;98710.75;4729000;30;20627;-87
2022/06/09 10:18:05;;;;;;;0.90;0.90;;;;;;;20.84;100.00;98706.81;4690338;30;20700;-86
2022/06/09 10:21:10;;;;;;;0.93;0.70;;;;;;;21.09;100.00;98697.19;4709659;30;20238;-86
2022/06/09 10:24:07;;;;;;;0.63;0.60;;;;;;;20.91;100.00;98703.63;4711735;30;20242;-86
2022/06/09 10:26:56;;;;;;;1.00;0.80;;;;;;;20.92;100.00;98705.25;4697766;30;20241;-87
2022/06/09 10:29:56;;;;;;;0.90;0.80;;;;;;;20.96;100.00;98703.50;4707880;30;20329;-87
2022/06/09 10:32:47;;;;;;;0.77;0.77;;;;;;;21.17;100.00;98709.31;4673222;30;20256;-86
2022/06/09 10:35:32;;;;;;;0.70;0.70;;;;;;;21.23;100.00;98719.75;4712711;30;20256;-85
2022/06/09 10:38:25;;;;;;;0.70;0.70;;;;;;;21.32;100.00;98715.16;4713339;30;20248;-85
2022/06/09 10:41:17;;;;;;;0.60;0.60;;;;;;;20.99;100.00;98725.50;4698649;30;20327;-87
2022/06/09 10:44:05;;;;;;;0.60;0.60;;;;;;;20.78;100.00;98718.13;4710005;30;20255;-86
2022/06/09 10:56:19;;;;;;;0.90;0.80;;;;;;;19.92;100.00;98720.78;4717040;30;20250;-87
2022/06/09 10:58:54;;;;;;;0.80;0.70;;;;;;;19.86;100.00;98723.88;4713471;30;20223;-87
2022/06/09 11:01:31;;;;;;;1.00;0.70;;;;;;;20.02;100.00;98727.91;4703574;30;20254;-87
2022/06/09 11:04:02;;;;;;;0.80;0.80;;;;;;;19.64;100.00;98724.59;4717412;30;20258;-86
2022/06/09 11:06:49;;;;;;;0.70;0.70;;;;;;;19.57;100.00;98719.53;4693159;30;20243;-87
2022/06/09 11:10:02;;;;;;;1.93;0.70;;;;;;;20.03;100.00;98719.44;4708951;30;20230;-87
2022/06/09 11:13:00;;;;;;;0.83;0.70;;;;;;;20.15;100.00;98718.94;4718952;30;20301;-87
2022/06/09 11:15:38;;;;;;;0.80;0.80;;;;;;;20.06;100.00;98712.63;4722787;30;20730;-87
2022/06/09 11:18:28;;;;;;;0.60;0.60;;;;;;;20.39;100.00;98708.63;4719109;30;20301;-87
2022/06/09 11:21:28;;;;;;;0.70;0.70;;;;;;;20.65;100.00;98706.97;4718811;30;20248;-86
2022/06/09 11:24:44;;;;;;;0.70;0.67;;;;;;;20.70;100.00;98708.78;4692275;30;20252;-86
2022/06/09 11:27:42;;;;;;;;;;;;;;;;;;;;;
2022/06/09 11:31:02;;;;;;;0.53;0.53;;;;;;;20.19;100.00;98706.34;4734469;30;20258;-87
2022/06/09 11:34:05;;;;;;;1.40;0.80;;;;;;;20.20;100.00;98718.84;4654861;30;20251;-87
2022/06/09 11:36:53;;;;;;;0.70;0.70;;;;;;;20.00;100.00;98722.78;4720519;30;20250;-86
2022/06/09 11:39:54;;;;;;;0.70;0.70;;;;;;;20.25;100.00;98713.28;4711277;30;20238;-86
2022/06/09 11:43:10;;;;;;;0.80;0.80;;;;;;;20.08;100.00;98716.63;4709317;30;20724;-85
2022/06/09 11:45:57;;;;;;;2.07;0.60;;;;;;;20.14;100.00;98709.19;4687806;30;20306;-85
2022/06/09 11:48:45;;;;;;;0.60;0.60;;;;;;;20.04;100.00;98707.47;4693409;30;20373;-85
2022/06/09 11:51:38;;;;;;;1.00;0.70;;;;;;;20.18;100.00;98716.41;4692683;30;20278;-85
2022/06/09 11:54:48;;;;;;;0.63;0.63;;;;;;;20.00;100.00;98702.94;4711046;30;20339;-85
2022/06/09 11:57:25;;;;;;;0.60;0.60;;;;;;;19.95;100.00;98717.44;4690458;30;20251;-87
2022/06/09 12:00:24;;;;;;;1.27;0.77;;;;;;;19.80;100.00;98712.31;4691975;30;20271;-86
2022/06/09 12:03:03;;;;;;;1.53;0.70;;;;;;;19.69;100.00;98714.41;4705696;30;20729;-84
2022/06/09 12:05:58;;;;;;;0.80;0.80;;;;;;;19.80;100.00;98712.31;4692748;30;20255;-85
2022/06/09 12:09:06;;;;;;;0.93;0.87;;;;;;;19.81;100.00;98707.69;4719687;30;20305;-85
2022/06/09 12:11:56;;;;;;;0.87;0.83;;;;;;;19.47;100.00;98705.31;4654843;30;20736;-82
2022/06/09 12:14:35;;;;;;;0.97;0.90;;;;;;;19.17;100.00;98710.19;4654659;30;20327;-85
2022/06/09 12:17:05;;;;;;;0.80;0.80;;;;;;;19.14;100.00;98708.03;4692662;30;20243;-85
2022/06/09 12:20:36;;;;;;;0.87;0.87;;;;;;;19.38;100.00;98707.09;4704699;30;20251;-85
2022/06/09 12:23:55;;;;;;;0.80;0.80;;;;;;;19.30;100.00;98714.03;4718011;30;20246;-85
2022/06/09 12:26:48;;;;;;;1.00;0.97;;;;;;;19.18;100.00;98717.19;4688933;30;20343;-83
2022/06/09 12:29:21;;;;;;;0.93;0.90;;;;;;;19.29;100.00;98721.38;4684314;30;20243;-87
2022/06/09 12:32:22;;;;;;;;;;;;;;;;;;;;;
2022/06/09 12:35:17;;;;;;;1.10;1.10;;;;;;;19.33;100.00;98721.56;4713973;30;20261;-85
2022/06/09 12:38:16;;;;;;;1.00;1.00;;;;;;;19.20;100.00;98725.06;4715431;30;20732;-85
2022/06/09 12:40:47;;;;;;;1.20;1.10;;;;;;;19.36;100.00;98724.47;4701456;30;20247;-85
2022/06/09 12:43:31;;;;;;;1.27;0.90;;;;;;;19.43;100.00;98734.16;4689232;30;20361;-85
2022/06/09 12:46:06;;;;;;;1.30;1.10;;;;;;;19.38;100.00;98723.38;4705804;30;20247;-85
2022/06/09 12:48:36;;;;;;;1.47;0.90;;;;;;;19.19;100.00;98729.69;4707284;30;20268;-85
2022/06/09 12:51:11;;;;;;;1.27;1.13;;;;;;;19.18;100.00;98727.25;4716490;30;20233;-85
2022/06/09 12:54:27;;;;;;;1.20;1.10;;;;;;;19.13;100.00;98730.06;4725999;30;20245;-85
2022/06/09 12:57:20;;;;;;;1.77;1.40;;;;;;;19.25;100.00;98725.78;4719819;30;20247;-84
2022/06/09 13:00:06;;;;;;;0.90;0.90;;;;;;;19.57;100.00;98714.09;4712891;30;20248;-85
2022/06/09 13:02:48;;;;;;;1.17;1.07;;;;;;;20.10;100.00;98710.91;4722116;30;20251;-85
2022/06/09 13:05:36;;;;;;;1.00;1.00;;;;;;;20.46;100.00;98722.66;4734735;30;20714;-85
2022/06/09 13:08:27;;;;;;;1.10;1.00;;;;;;;20.59;100.00;98724.53;4702838;30;20828;-85
2022/06/09 13:14:30;;;;;;;1.53;1.07;;;;;;;20.90;100.00;98726.56;4720912;30;20248;-84
2022/06/09 13:17:07;;;;;;;0.90;0.90;;;;;;;20.95;100.00;98721.00;4723957;30;20250;-85